Time;durP1;ratioP1;P1;durP2;ratioP2;P2;SDS_P1;SDS_P2;PMS_P1;PMS_P2;Temp;Humidity;BMP_temperature;BMP_pressure;BME280_temperature;BME280_humidity;BME280_pressure;Samples;Min_cycle;Max_cycle;Signal;HPM_P1;HPM_P2
2021/12/28 00:01:53;;;;;;;2.60;1.45;;;17.60;54.40;;;;;;5003666;28;20034;-57
2021/12/28 00:04:18;;;;;;;2.90;1.48;;;17.60;54.40;;;;;;5003076;28;20547;-57
2021/12/28 00:06:44;;;;;;;3.33;1.40;;;17.60;54.40;;;;;;5002521;28;20532;-54
2021/12/28 00:09:09;;;;;;;2.45;1.15;;;17.60;54.40;;;;;;5003867;28;20053;-57
2021/12/28 00:11:35;;;;;;;2.92;1.30;;;17.60;54.40;;;;;;5003612;28;20026;-62
2021/12/28 00:14:02;;;;;;;2.53;1.50;;;17.60;54.40;;;;;;5004296;28;20050;-58
2021/12/28 00:16:31;;;;;;;2.33;1.60;;;17.70;54.50;;;;;;5002353;28;20028;-53
2021/12/28 00:18:58;;;;;;;2.22;1.30;;;17.70;54.40;;;;;;5002757;28;20034;-56
2021/12/28 00:21:23;;;;;;;3.15;1.30;;;17.70;54.50;;;;;;5003661;28;20045;-52
2021/12/28 00:23:49;;;;;;;3.92;1.75;;;17.60;54.30;;;;;;5003675;28;20034;-57
2021/12/28 00:26:15;;;;;;;2.95;1.90;;;17.70;54.40;;;;;;5001249;28;20070;-53
2021/12/28 00:28:41;;;;;;;1.80;1.35;;;17.60;54.30;;;;;;5001934;28;20037;-57
2021/12/28 00:31:06;;;;;;;1.88;1.10;;;17.60;54.30;;;;;;4999634;28;20040;-54
2021/12/28 00:33:32;;;;;;;1.67;1.30;;;17.70;54.40;;;;;;5000027;28;20023;-53
2021/12/28 00:35:57;;;;;;;2.88;1.50;;;17.70;54.30;;;;;;4988199;28;20827;-55
2021/12/28 00:38:24;;;;;;;4.53;1.42;;;17.70;54.40;;;;;;4993834;28;20039;-56
2021/12/28 00:41:00;;;;;;;2.17;1.17;;;17.70;54.30;;;;;;5004183;28;20026;-55
2021/12/28 00:43:26;;;;;;;2.25;1.38;;;17.60;54.30;;;;;;4995626;28;20030;-55
2021/12/28 00:45:52;;;;;;;3.35;1.80;;;17.70;54.40;;;;;;5000608;28;20117;-54
2021/12/28 00:48:17;;;;;;;2.67;1.60;;;17.70;54.30;;;;;;4997008;28;20572;-55
2021/12/28 00:50:44;;;;;;;2.38;1.40;;;17.70;54.30;;;;;;5000097;28;20030;-56
2021/12/28 00:53:10;;;;;;;2.65;1.33;;;17.60;54.20;;;;;;4997801;28;20041;-56
2021/12/28 00:55:35;;;;;;;2.97;1.40;;;17.70;54.30;;;;;;4998991;28;20041;-58
2021/12/28 00:58:01;;;;;;;2.60;1.40;;;17.60;54.10;;;;;;5000619;28;20045;-58
2021/12/28 01:00:28;;;;;;;1.95;1.38;;;17.70;54.10;;;;;;5001780;28;20030;-55
2021/12/28 01:02:54;;;;;;;4.45;1.17;;;17.70;54.70;;;;;;5000420;28;20029;-56
2021/12/28 01:05:20;;;;;;;2.20;1.08;;;17.70;54.10;;;;;;5002011;28;20049;-57
2021/12/28 01:07:46;;;;;;;2.60;1.52;;;17.70;53.90;;;;;;4999630;28;20041;-55
2021/12/28 01:10:14;;;;;;;3.22;1.30;;;17.70;53.90;;;;;;5001404;28;20036;-54
2021/12/28 01:12:39;;;;;;;2.00;1.15;;;17.70;53.80;;;;;;4990096;28;20110;-58
2021/12/28 01:15:06;;;;;;;2.65;1.25;;;17.70;53.70;;;;;;5000873;28;20241;-56
2021/12/28 01:17:33;;;;;;;2.88;1.10;;;17.70;53.70;;;;;;4999482;28;20049;-55
2021/12/28 01:19:58;;;;;;;3.15;1.27;;;17.70;53.60;;;;;;5001762;28;20034;-56
2021/12/28 01:22:24;;;;;;;2.65;1.20;;;17.80;53.60;;;;;;5000405;28;20029;-57
2021/12/28 01:24:49;;;;;;;2.00;1.42;;;17.70;53.80;;;;;;4990246;28;20419;-52
2021/12/28 01:27:15;;;;;;;2.15;1.17;;;17.70;54.00;;;;;;4998496;28;20259;-55
2021/12/28 01:29:40;;;;;;;1.83;1.10;;;17.60;54.00;;;;;;4994227;28;20537;-55
2021/12/28 01:32:08;;;;;;;2.47;1.30;;;17.60;54.10;;;;;;4998362;28;20042;-58
2021/12/28 01:34:33;;;;;;;3.40;1.13;;;17.60;54.20;;;;;;5002795;28;20497;-55
2021/12/28 01:36:59;;;;;;;1.60;1.27;;;17.60;54.30;;;;;;4998698;28;20045;-53
2021/12/28 01:39:25;;;;;;;2.42;1.40;;;17.60;54.40;;;;;;5001016;28;20026;-57
2021/12/28 01:41:50;;;;;;;1.52;1.08;;;17.60;54.40;;;;;;5002972;28;20072;-58
2021/12/28 01:44:15;;;;;;;1.80;1.17;;;17.60;54.50;;;;;;5000867;28;20473;-56
2021/12/28 01:46:41;;;;;;;1.70;1.27;;;17.60;54.50;;;;;;5002577;28;20076;-56
2021/12/28 01:49:07;;;;;;;3.03;1.15;;;17.50;54.50;;;;;;4996580;28;20072;-57
2021/12/28 01:51:33;;;;;;;3.05;1.45;;;17.50;54.60;;;;;;5002113;28;20537;-54
2021/12/28 01:53:59;;;;;;;3.33;1.52;;;17.50;54.60;;;;;;4998148;28;20025;-51
2021/12/28 01:56:27;;;;;;;2.00;1.17;;;17.50;54.70;;;;;;5002064;28;20034;-51
2021/12/28 01:58:53;;;;;;;5.10;1.70;;;17.50;54.70;;;;;;4999060;28;20037;-53
2021/12/28 02:01:18;;;;;;;3.63;1.52;;;17.50;54.70;;;;;;5001749;28;20036;-51
2021/12/28 02:03:45;;;;;;;2.72;1.42;;;17.50;54.70;;;;;;4999037;28;20033;-56
2021/12/28 02:06:11;;;;;;;2.65;1.23;;;17.50;54.70;;;;;;5001969;28;20084;-55
2021/12/28 02:08:37;;;;;;;3.90;1.60;;;17.50;54.70;;;;;;4998633;28;20034;-55
2021/12/28 02:11:03;;;;;;;2.47;1.27;;;17.50;54.70;;;;;;5000388;28;20107;-57
2021/12/28 02:13:28;;;;;;;4.20;1.70;;;17.50;54.70;;;;;;4998217;28;20113;-56
2021/12/28 02:15:56;;;;;;;3.53;1.40;;;17.50;54.70;;;;;;5002583;28;20113;-56
2021/12/28 02:18:22;;;;;;;4.07;1.50;;;17.50;54.70;;;;;;5000468;28;20065;-56
2021/12/28 02:20:48;;;;;;;2.92;1.38;;;17.50;54.80;;;;;;5000013;28;20495;-58
2021/12/28 02:23:14;;;;;;;3.33;1.40;;;17.50;54.80;;;;;;4998682;28;20546;-53
2021/12/28 02:25:40;;;;;;;2.75;1.60;;;17.50;54.90;;;;;;5001280;28;20034;-57
2021/12/28 02:28:06;;;;;;;5.40;1.85;;;17.40;55.00;;;;;;5000733;28;20519;-58
2021/12/28 02:30:32;;;;;;;3.15;1.50;;;17.40;55.00;;;;;;5003670;28;20743;-57
2021/12/28 02:32:57;;;;;;;3.22;1.73;;;17.40;55.10;;;;;;5002754;28;20037;-58
2021/12/28 02:35:24;;;;;;;4.38;1.60;;;17.30;55.10;;;;;;5004937;28;20495;-57
2021/12/28 02:37:50;;;;;;;2.25;1.55;;;17.30;55.10;;;;;;5000623;28;20424;-57
2021/12/28 02:40:19;;;;;;;3.22;1.77;;;17.30;55.20;;;;;;5004952;28;20041;-55
2021/12/28 02:42:44;;;;;;;2.53;1.60;;;17.30;55.30;;;;;;5002047;28;20033;-57
2021/12/28 02:45:13;;;;;;;3.03;1.55;;;17.30;55.30;;;;;;5017023;22;20054;-54
2021/12/28 02:47:40;;;;;;;1.50;1.30;;;17.30;55.40;;;;;;4989327;28;20041;-56
2021/12/28 02:50:07;;;;;;;3.03;1.88;;;17.30;55.40;;;;;;4983788;28;20405;-56
2021/12/28 02:52:34;;;;;;;2.30;1.60;;;17.30;55.40;;;;;;4985901;28;20467;-55
2021/12/28 02:55:00;;;;;;;3.35;1.67;;;17.30;55.40;;;;;;4973779;28;20058;-51
2021/12/28 02:57:25;;;;;;;3.00;1.83;;;17.30;55.50;;;;;;4984564;28;20058;-52
2021/12/28 02:59:51;;;;;;;2.30;1.65;;;17.30;55.50;;;;;;4992247;28;20120;-56
2021/12/28 03:02:17;;;;;;;2.20;1.58;;;17.30;55.60;;;;;;4983636;28;20485;-52
2021/12/28 03:04:42;;;;;;;1.80;1.50;;;17.30;55.50;;;;;;4988323;28;20037;-55
2021/12/28 03:07:08;;;;;;;3.40;1.80;;;17.30;55.50;;;;;;4986112;28;20027;-52
2021/12/28 03:09:33;;;;;;;2.72;1.67;;;17.30;55.50;;;;;;4992523;28;20033;-51
2021/12/28 03:11:59;;;;;;;4.68;1.95;;;17.30;55.50;;;;;;4983271;28;20075;-54
2021/12/28 03:14:24;;;;;;;2.65;1.80;;;17.30;55.50;;;;;;4986332;28;20033;-52
2021/12/28 03:16:50;;;;;;;3.38;1.83;;;17.30;55.50;;;;;;4967850;28;20033;-50
2021/12/28 03:19:15;;;;;;;2.33;1.55;;;17.20;55.50;;;;;;4983027;28;20601;-52
2021/12/28 03:21:41;;;;;;;3.30;1.85;;;17.20;55.50;;;;;;4985100;28;20031;-54
2021/12/28 03:24:08;;;;;;;3.70;2.05;;;17.20;55.40;;;;;;4983761;28;20027;-54
2021/12/28 03:26:33;;;;;;;4.30;2.17;;;17.20;55.40;;;;;;4983804;28;20043;-56
2021/12/28 03:28:59;;;;;;;4.57;2.53;;;17.20;55.30;;;;;;4983176;28;20102;-53
2021/12/28 03:31:24;;;;;;;3.75;1.88;;;17.20;55.30;;;;;;4983859;28;20034;-57
2021/12/28 03:33:52;;;;;;;2.95;1.75;;;17.20;55.30;;;;;;4985221;28;20041;-56
2021/12/28 03:36:17;;;;;;;2.40;1.48;;;17.20;55.30;;;;;;4985826;28;20072;-56
2021/12/28 03:38:43;;;;;;;3.75;2.63;;;17.20;55.30;;;;;;4984212;28;20117;-52
2021/12/28 03:41:09;;;;;;;2.22;1.40;;;17.20;55.30;;;;;;4989262;28;20047;-50
2021/12/28 03:43:36;;;;;;;2.75;1.88;;;17.20;55.30;;;;;;4985195;28;20027;-49
2021/12/28 03:46:01;;;;;;;2.80;1.65;;;17.20;55.30;;;;;;4986168;28;20709;-48
2021/12/28 03:48:27;;;;;;;1.88;1.65;;;17.20;55.20;;;;;;4983627;28;20034;-49
2021/12/28 03:50:52;;;;;;;3.15;1.65;;;17.20;55.20;;;;;;4980747;28;20401;-53
2021/12/28 03:53:18;;;;;;;2.78;1.70;;;17.20;55.10;;;;;;4984065;28;20038;-49
2021/12/28 03:55:44;;;;;;;2.70;1.85;;;17.20;55.30;;;;;;4982281;28;20023;-48
2021/12/28 03:58:09;;;;;;;2.67;1.70;;;17.20;55.40;;;;;;4984303;28;20109;-50
2021/12/28 04:00:40;;;;;;;4.13;2.15;;;17.20;55.40;;;;;;4987228;28;20044;-58
2021/12/28 04:03:06;;;;;;;3.38;1.77;;;17.20;55.50;;;;;;4984500;28;20039;-51
2021/12/28 04:05:31;;;;;;;4.00;1.88;;;17.20;55.60;;;;;;4984688;28;20121;-58
2021/12/28 04:07:57;;;;;;;2.00;1.80;;;17.20;55.60;;;;;;4983378;28;20089;-56
2021/12/28 04:10:30;;;;;;;3.65;1.90;;;17.20;55.60;;;;;;4985267;28;20033;-58
2021/12/28 04:12:56;;;;;;;3.42;2.10;;;17.10;55.60;;;;;;4983302;28;20031;-50
2021/12/28 04:15:22;;;;;;;2.90;2.15;;;17.10;55.60;;;;;;4984974;28;20089;-54
2021/12/28 04:17:47;;;;;;;3.30;2.00;;;17.10;55.70;;;;;;4985066;28;20070;-57
2021/12/28 04:20:15;;;;;;;3.25;2.10;;;17.10;55.70;;;;;;4983918;28;20035;-58
2021/12/28 04:22:41;;;;;;;3.72;1.70;;;17.10;55.70;;;;;;4990563;28;20038;-56
2021/12/28 04:25:07;;;;;;;3.10;1.92;;;17.20;55.70;;;;;;4982376;28;20041;-50
2021/12/28 04:27:32;;;;;;;2.53;1.92;;;17.20;55.60;;;;;;4981918;28;20034;-51
2021/12/28 04:29:58;;;;;;;2.92;2.17;;;17.20;55.60;;;;;;4981993;28;20077;-56
2021/12/28 04:32:23;;;;;;;2.67;1.80;;;17.20;55.50;;;;;;4983634;28;20034;-52
2021/12/28 04:34:49;;;;;;;4.03;1.88;;;17.30;55.60;;;;;;4981254;28;20505;-50
2021/12/28 04:37:14;;;;;;;3.85;2.70;;;17.30;55.50;;;;;;4982200;28;20042;-52
2021/12/28 04:39:40;;;;;;;4.20;2.10;;;17.30;55.50;;;;;;4983035;28;20027;-49
2021/12/28 04:42:06;;;;;;;2.85;1.92;;;17.30;55.50;;;;;;4983310;28;20456;-56
2021/12/28 04:44:31;;;;;;;3.03;2.13;;;17.30;55.40;;;;;;4984008;28;20050;-55
2021/12/28 04:46:57;;;;;;;3.20;1.95;;;17.40;55.40;;;;;;4984365;28;20034;-53
2021/12/28 04:49:25;;;;;;;3.63;2.13;;;17.40;55.30;;;;;;4982080;28;20105;-51
2021/12/28 04:51:50;;;;;;;2.90;1.90;;;17.40;55.30;;;;;;4982986;28;20022;-51
2021/12/28 04:54:16;;;;;;;3.10;2.20;;;17.40;55.30;;;;;;4982036;28;20497;-51
2021/12/28 04:56:42;;;;;;;3.60;1.80;;;17.50;55.20;;;;;;4981911;28;20122;-53
2021/12/28 04:59:07;;;;;;;3.08;2.00;;;17.50;55.20;;;;;;4982135;28;20113;-53
2021/12/28 05:01:36;;;;;;;2.65;1.85;;;17.50;55.10;;;;;;4986288;28;20038;-52
2021/12/28 05:04:02;;;;;;;3.50;2.05;;;17.50;55.00;;;;;;4991242;28;20071;-56
2021/12/28 05:06:27;;;;;;;2.80;2.00;;;17.50;55.00;;;;;;4991224;28;20408;-55
2021/12/28 05:08:53;;;;;;;3.67;1.70;;;17.50;55.00;;;;;;4982444;28;20686;-51
2021/12/28 05:11:18;;;;;;;3.45;2.00;;;17.50;55.00;;;;;;4985636;28;20126;-55
2021/12/28 05:13:45;;;;;;;3.38;1.88;;;17.50;55.00;;;;;;4987114;28;20417;-55
2021/12/28 05:16:14;;;;;;;3.90;2.00;;;17.50;54.90;;;;;;4983021;28;20026;-50
2021/12/28 05:18:39;;;;;;;3.20;1.77;;;17.50;54.90;;;;;;4981375;28;20489;-51
2021/12/28 05:21:05;;;;;;;3.63;1.95;;;17.60;54.90;;;;;;4982630;28;20041;-54
2021/12/28 05:23:30;;;;;;;3.72;2.00;;;17.60;54.90;;;;;;4982681;28;20030;-57
2021/12/28 05:25:56;;;;;;;2.33;1.65;;;17.60;54.90;;;;;;4983149;28;20065;-51
2021/12/28 05:28:21;;;;;;;2.40;1.83;;;17.60;54.80;;;;;;4981396;28;20045;-52
2021/12/28 05:30:47;;;;;;;2.70;1.80;;;17.70;54.90;;;;;;4982223;28;20445;-56
2021/12/28 05:33:12;;;;;;;4.40;2.05;;;17.70;54.80;;;;;;4965191;28;20128;-50
2021/12/28 05:35:38;;;;;;;2.65;1.83;;;17.60;54.70;;;;;;4982676;28;20034;-51
2021/12/28 05:38:04;;;;;;;2.17;1.77;;;17.70;54.80;;;;;;4982563;28;20046;-49
2021/12/28 05:40:30;;;;;;;2.20;1.60;;;17.70;54.80;;;;;;4982028;28;20036;-52
2021/12/28 05:42:55;;;;;;;2.90;2.05;;;17.60;54.70;;;;;;4984177;28;20041;-55
2021/12/28 05:45:21;;;;;;;2.33;1.88;;;17.70;54.70;;;;;;4983161;28;20038;-53
2021/12/28 05:47:47;;;;;;;2.75;1.95;;;17.70;54.70;;;;;;4983090;28;20069;-51
2021/12/28 05:50:12;;;;;;;2.05;1.45;;;17.70;54.80;;;;;;4981654;28;20046;-50
2021/12/28 05:52:38;;;;;;;2.75;1.73;;;17.70;54.80;;;;;;4981273;28;20378;-56
2021/12/28 05:55:04;;;;;;;3.35;2.05;;;17.70;54.80;;;;;;4982195;28;20067;-56
2021/12/28 05:57:30;;;;;;;2.97;1.98;;;17.70;54.80;;;;;;4982282;28;20044;-50
2021/12/28 05:59:56;;;;;;;3.28;1.80;;;17.70;54.80;;;;;;4982796;28;20053;-49
2021/12/28 06:02:21;;;;;;;4.35;2.15;;;17.70;54.80;;;;;;4985071;28;20379;-57
2021/12/28 06:04:47;;;;;;;2.40;1.77;;;17.70;54.80;;;;;;4980122;28;20030;-54
2021/12/28 06:07:12;;;;;;;2.28;1.88;;;17.70;54.80;;;;;;4982851;28;20077;-55
2021/12/28 06:09:38;;;;;;;1.92;1.77;;;17.70;54.80;;;;;;4983011;28;20081;-56
2021/12/28 06:12:06;;;;;;;2.05;1.60;;;17.70;54.80;;;;;;4980642;28;20029;-49
2021/12/28 06:14:32;;;;;;;2.10;1.73;;;17.70;54.70;;;;;;4982898;28;20698;-53
2021/12/28 06:16:57;;;;;;;2.55;1.60;;;17.70;54.70;;;;;;4982513;28;20033;-52
2021/12/28 06:19:22;;;;;;;2.83;1.80;;;17.70;54.70;;;;;;4979853;28;20050;-55
2021/12/28 06:21:48;;;;;;;2.38;1.98;;;17.70;54.70;;;;;;4982314;28;20030;-55
2021/12/28 06:24:14;;;;;;;2.00;1.80;;;17.70;54.70;;;;;;4981483;28;20041;-50
2021/12/28 06:26:39;;;;;;;3.35;2.15;;;17.70;54.70;;;;;;4981790;28;20034;-56
2021/12/28 06:29:05;;;;;;;1.92;1.70;;;17.70;54.70;;;;;;4979610;28;20119;-55
2021/12/28 06:31:31;;;;;;;3.05;1.77;;;17.70;54.80;;;;;;4979044;28;20493;-53
2021/12/28 06:34:01;;;;;;;2.53;1.73;;;17.70;54.80;;;;;;4985931;28;20030;-58
2021/12/28 06:36:27;;;;;;;2.72;1.90;;;17.70;54.80;;;;;;4973071;28;20030;-52
2021/12/28 06:38:53;;;;;;;2.25;1.65;;;17.70;54.90;;;;;;4975811;28;20026;-54
2021/12/28 06:41:18;;;;;;;2.95;1.80;;;17.70;54.90;;;;;;4979858;28;20033;-56
2021/12/28 06:43:44;;;;;;;2.25;1.73;;;17.70;54.90;;;;;;4982066;28;20034;-57
2021/12/28 06:46:09;;;;;;;2.78;1.70;;;17.70;54.90;;;;;;4981362;28;20462;-53
2021/12/28 06:48:35;;;;;;;2.53;1.70;;;17.70;55.00;;;;;;4978479;28;20047;-52
2021/12/28 06:51:00;;;;;;;3.78;1.73;;;17.70;55.00;;;;;;4981658;28;20034;-57
2021/12/28 06:53:26;;;;;;;2.30;1.80;;;17.70;55.00;;;;;;4976696;28;20037;-52
2021/12/28 06:55:51;;;;;;;2.70;1.65;;;17.70;55.10;;;;;;4986641;28;20035;-53
2021/12/28 06:58:17;;;;;;;2.60;1.85;;;17.70;55.00;;;;;;4981646;28;20108;-52
2021/12/28 07:00:42;;;;;;;2.10;1.70;;;17.70;55.10;;;;;;4979024;28;20026;-49
2021/12/28 07:03:08;;;;;;;2.17;1.70;;;17.70;55.20;;;;;;4980437;28;20322;-54
2021/12/28 07:05:33;;;;;;;3.10;1.60;;;17.70;55.20;;;;;;4986467;28;20038;-50
2021/12/28 07:07:59;;;;;;;1.92;1.40;;;17.70;55.20;;;;;;4982081;28;20200;-55
2021/12/28 07:10:25;;;;;;;2.85;1.88;;;17.70;55.20;;;;;;4981615;28;20053;-53
2021/12/28 07:12:50;;;;;;;4.28;1.98;;;17.70;55.20;;;;;;4980735;28;20509;-58
2021/12/28 07:15:19;;;;;;;2.40;1.67;;;17.60;55.10;;;;;;4980455;28;20050;-53
2021/12/28 07:17:45;;;;;;;1.98;1.45;;;17.70;55.20;;;;;;4980577;28;20038;-54
2021/12/28 07:20:11;;;;;;;2.20;1.58;;;17.60;55.20;;;;;;4985294;28;20041;-53
2021/12/28 07:22:37;;;;;;;5.15;1.88;;;17.70;55.20;;;;;;4983495;28;20061;-51
2021/12/28 07:25:03;;;;;;;2.33;1.38;;;17.70;55.20;;;;;;4984572;28;20027;-54
2021/12/28 07:27:28;;;;;;;2.05;1.63;;;17.70;55.80;;;;;;4983109;28;20693;-52
2021/12/28 07:29:53;;;;;;;2.50;1.70;;;17.70;55.10;;;;;;4986983;28;20031;-50
2021/12/28 07:32:19;;;;;;;2.58;1.50;;;17.60;55.00;;;;;;4981146;28;20031;-52
2021/12/28 07:34:45;;;;;;;1.90;1.35;;;17.60;55.00;;;;;;4984351;28;20065;-54
2021/12/28 07:37:10;;;;;;;2.38;1.58;;;17.60;55.00;;;;;;4982150;28;20453;-53
2021/12/28 07:39:36;;;;;;;2.25;1.50;;;17.60;55.00;;;;;;4985211;28;20027;-51
2021/12/28 07:42:01;;;;;;;1.98;1.50;;;17.60;55.00;;;;;;4982683;28;20513;-50
2021/12/28 07:44:27;;;;;;;2.92;1.45;;;17.60;55.00;;;;;;4988567;28;20035;-54
2021/12/28 07:46:53;;;;;;;3.35;1.83;;;17.60;55.00;;;;;;4985650;28;20465;-55
2021/12/28 07:49:18;;;;;;;1.67;1.58;;;17.60;55.00;;;;;;4987475;28;20022;-54
2021/12/28 07:51:44;;;;;;;3.22;1.70;;;17.60;54.90;;;;;;4984433;28;20082;-54
2021/12/28 07:54:09;;;;;;;1.70;1.35;;;17.60;54.90;;;;;;4989263;28;20037;-52
2021/12/28 07:56:35;;;;;;;2.35;1.65;;;17.60;54.90;;;;;;4984187;28;20037;-52
2021/12/28 07:59:00;;;;;;;2.65;1.58;;;17.60;54.80;;;;;;4981772;28;20587;-53
2021/12/28 08:01:26;;;;;;;2.95;1.70;;;17.60;54.80;;;;;;4984353;28;20093;-53
2021/12/28 08:03:51;;;;;;;3.67;1.50;;;17.60;54.90;;;;;;4980678;28;20089;-51
2021/12/28 08:06:17;;;;;;;3.28;1.73;;;17.60;54.90;;;;;;4982347;28;20234;-51
2021/12/28 08:08:43;;;;;;;2.25;1.35;;;17.60;54.90;;;;;;4983558;28;20506;-51
2021/12/28 08:11:08;;;;;;;2.33;1.40;;;17.60;54.90;;;;;;4982912;28;20042;-53
2021/12/28 08:13:34;;;;;;;2.35;1.60;;;17.60;54.90;;;;;;4984580;28;20031;-53
2021/12/28 08:15:59;;;;;;;3.03;1.50;;;17.70;55.00;;;;;;4985788;28;20531;-55
2021/12/28 08:18:25;;;;;;;3.15;1.40;;;17.60;54.90;;;;;;4983534;28;20050;-50
2021/12/28 08:20:50;;;;;;;2.50;1.48;;;17.60;55.00;;;;;;4983169;28;20404;-53
2021/12/28 08:23:16;;;;;;;3.10;1.38;;;17.60;55.00;;;;;;4984346;28;20497;-52
2021/12/28 08:25:42;;;;;;;24.27;11.55;;;17.60;55.00;;;;;;4983727;28;20045;-52
2021/12/28 08:28:07;;;;;;;51.17;28.52;;;17.60;55.00;;;;;;4983045;28;20034;-51
2021/12/28 08:30:38;;;;;;;60.38;31.77;;;17.60;55.00;;;;;;4978327;28;20121;-53
2021/12/28 08:33:04;;;;;;;66.00;35.35;;;17.60;55.10;;;;;;4974364;28;20088;-50
2021/12/28 08:35:30;;;;;;;60.55;34.78;;;17.60;55.20;;;;;;4981110;28;20245;-51
2021/12/28 08:37:56;;;;;;;64.72;34.17;;;17.60;55.60;;;;;;4981332;28;20505;-51
2021/12/28 08:40:22;;;;;;;72.20;35.00;;;17.60;55.80;;;;;;4990092;28;22307;-51
2021/12/28 08:42:47;;;;;;;59.65;31.52;;;17.50;55.90;;;;;;4976470;28;20038;-55
2021/12/28 08:45:13;;;;;;;57.47;32.08;;;17.50;56.00;;;;;;4984036;28;20108;-53
2021/12/28 08:47:38;;;;;;;52.58;29.70;;;17.50;56.10;;;;;;5030322;22;20049;-58
2021/12/28 08:50:06;;;;;;;48.08;25.63;;;17.50;56.10;;;;;;5001971;28;20104;-57
2021/12/28 08:52:31;;;;;;;52.38;28.50;;;17.50;56.10;;;;;;5003104;28;20657;-58
2021/12/28 08:54:57;;;;;;;46.80;26.17;;;17.50;56.20;;;;;;5003935;28;20040;-56
2021/12/28 08:57:23;;;;;;;48.95;26.77;;;17.50;56.10;;;;;;4985638;28;20041;-56
2021/12/28 08:59:48;;;;;;;42.90;23.88;;;17.50;56.20;;;;;;4983187;28;20173;-58
2021/12/28 09:02:14;;;;;;;45.80;24.65;;;17.50;56.20;;;;;;4982524;28;20317;-55
2021/12/28 09:04:43;;;;;;;44.90;24.98;;;17.50;56.30;;;;;;4981314;28;20204;-57
2021/12/28 09:07:09;;;;;;;43.13;25.23;;;17.50;56.30;;;;;;4981196;28;20030;-57
2021/12/28 09:09:35;;;;;;;42.17;22.73;;;17.50;56.30;;;;;;4981638;28;20486;-55
2021/12/28 09:12:00;;;;;;;39.08;20.80;;;17.50;56.40;;;;;;4983370;28;20035;-56
2021/12/28 09:14:26;;;;;;;41.15;20.33;;;17.40;56.30;;;;;;4982818;28;20191;-55
2021/12/28 09:16:51;;;;;;;34.28;20.42;;;17.40;56.30;;;;;;4984638;28;20037;-56
2021/12/28 09:19:17;;;;;;;34.92;19.20;;;17.40;56.20;;;;;;4981679;28;20046;-56
2021/12/28 09:21:42;;;;;;;30.98;17.85;;;17.50;56.30;;;;;;4983007;28;20512;-55
2021/12/28 09:24:08;;;;;;;31.10;18.77;;;17.50;56.30;;;;;;4982911;28;20046;-56
2021/12/28 09:26:34;;;;;;;39.78;18.83;;;17.50;56.20;;;;;;4983514;28;20113;-56
2021/12/28 09:29:00;;;;;;;38.15;19.73;;;17.50;56.20;;;;;;4983090;28;20038;-58
2021/12/28 09:31:25;;;;;;;33.88;17.45;;;17.50;56.20;;;;;;4984784;28;20041;-56
2021/12/28 09:33:51;;;;;;;38.08;17.67;;;17.50;56.10;;;;;;4982373;28;20083;-54
2021/12/28 09:36:17;;;;;;;35.25;17.63;;;17.50;56.10;;;;;;4986213;28;20037;-57
2021/12/28 09:38:43;;;;;;;33.05;17.10;;;17.40;56.10;;;;;;4981547;28;20571;-56
2021/12/28 09:41:09;;;;;;;31.38;16.65;;;17.40;56.00;;;;;;4981907;28;20037;-56
2021/12/28 09:43:34;;;;;;;30.60;15.82;;;17.40;56.10;;;;;;4981195;28;20034;-57
2021/12/28 09:46:00;;;;;;;30.25;15.38;;;17.40;56.10;;;;;;4983879;28;20037;-57
2021/12/28 09:48:25;;;;;;;27.95;15.38;;;17.40;56.10;;;;;;4981734;28;20030;-56
2021/12/28 09:50:51;;;;;;;34.42;15.80;;;17.30;56.10;;;;;;4982348;28;20034;-57
2021/12/28 09:53:16;;;;;;;31.40;16.02;;;17.40;56.20;;;;;;4981467;28;20031;-58
2021/12/28 09:55:42;;;;;;;24.38;13.65;;;17.30;56.20;;;;;;4983047;28;20413;-56
2021/12/28 09:58:07;;;;;;;30.15;14.38;;;17.30;56.20;;;;;;4987398;28;20045;-58
2021/12/28 10:00:33;;;;;;;22.55;13.73;;;17.30;56.20;;;;;;4982537;28;20026;-54
2021/12/28 10:02:58;;;;;;;27.20;13.95;;;17.30;56.20;;;;;;4971421;28;21502;-58
2021/12/28 10:05:25;;;;;;;25.60;13.18;;;17.30;56.20;;;;;;4979978;28;20431;-54
2021/12/28 10:07:56;;;;;;;26.52;13.77;;;17.30;56.10;;;;;;4986367;28;20046;-53
2021/12/28 10:10:22;;;;;;;26.65;13.63;;;17.30;56.40;;;;;;4980462;28;20486;-56
2021/12/28 10:12:53;;;;;;;25.83;13.50;;;17.30;56.40;;;;;;4983617;28;20621;-57
2021/12/28 10:15:23;;;;;;;23.63;13.05;;;17.40;56.50;;;;;;4981953;28;20559;-55
2021/12/28 10:17:52;;;;;;;23.83;12.82;;;17.30;56.50;;;;;;4982705;28;20038;-53
2021/12/28 10:20:32;;;;;;;23.42;12.70;;;17.30;56.50;;;;;;4972792;28;20117;-58
2021/12/28 10:23:02;;;;;;;21.50;11.02;;;17.30;56.50;;;;;;4986556;28;20027;-56
2021/12/28 10:25:37;;;;;;;28.27;13.10;;;17.30;56.50;;;;;;4974848;28;20053;-58
2021/12/28 10:28:06;;;;;;;29.90;13.43;;;17.30;56.60;;;;;;4979306;28;20563;-58
2021/12/28 10:30:39;;;;;;;22.60;12.65;;;17.40;56.70;;;;;;4977836;28;20746;-62
2021/12/28 10:33:07;;;;;;;28.20;12.98;;;17.30;56.60;;;;;;4988772;28;20564;-57
2021/12/28 10:35:34;;;;;;;24.20;12.00;;;17.40;56.60;;;;;;4982613;28;20160;-53
2021/12/28 10:38:03;;;;;;;20.60;11.50;;;17.30;56.50;;;;;;4983513;28;20117;-58
2021/12/28 10:40:31;;;;;;;26.85;11.68;;;17.30;56.50;;;;;;4980746;28;20041;-57
2021/12/28 10:43:20;;;;;;;23.88;11.88;;;17.40;56.50;;;;;;4987907;28;20030;-54
2021/12/28 10:45:50;;;;;;;31.48;13.20;;;17.30;56.40;;;;;;4981838;28;20038;-55
2021/12/28 10:48:17;;;;;;;31.25;13.75;;;17.30;56.50;;;;;;4983806;28;20070;-56
2021/12/28 10:51:02;;;;;;;28.80;11.50;;;17.40;56.50;;;;;;4982165;28;20610;-57
2021/12/28 10:53:36;;;;;;;21.75;11.77;;;17.30;56.40;;;;;;4984894;28;20117;-57
2021/12/28 10:56:03;;;;;;;24.43;12.90;;;17.30;56.40;;;;;;4984861;28;20065;-55
2021/12/28 10:58:31;;;;;;;23.25;11.82;;;17.30;56.40;;;;;;4984390;28;20038;-58
2021/12/28 11:01:00;;;;;;;25.50;11.93;;;17.30;56.40;;;;;;4985224;28;20042;-58
2021/12/28 11:03:31;;;;;;;25.98;12.18;;;17.30;56.40;;;;;;4986801;28;20547;-55
2021/12/28 11:05:59;;;;;;;27.55;13.25;;;17.30;56.40;;;;;;4985397;28;20865;-58
2021/12/28 11:08:26;;;;;;;31.38;12.55;;;17.30;56.50;;;;;;4984634;28;20046;-58
2021/12/28 11:10:53;;;;;;;30.73;12.90;;;17.20;56.50;;;;;;4984891;28;20089;-56
2021/12/28 11:13:24;;;;;;;28.75;12.30;;;17.20;56.50;;;;;;4986103;28;20037;-58
2021/12/28 11:15:49;;;;;;;28.92;12.73;;;17.20;56.50;;;;;;4984717;28;20438;-56
2021/12/28 11:18:33;;;;;;;25.98;12.77;;;17.20;56.50;;;;;;4984806;28;20173;-56
2021/12/28 11:21:09;;;;;;;28.88;12.63;;;17.20;56.50;;;;;;4984778;28;20701;-56
2021/12/28 11:23:34;;;;;;;26.52;13.15;;;17.20;56.50;;;;;;4983641;28;20106;-60
2021/12/28 11:26:04;;;;;;;24.30;12.27;;;17.20;56.50;;;;;;4984217;28;20157;-55
2021/12/28 11:28:31;;;;;;;26.25;12.07;;;17.20;56.60;;;;;;4985262;28;20633;-58
2021/12/28 11:31:02;;;;;;;24.05;12.07;;;17.20;56.50;;;;;;4982233;28;20030;-56
2021/12/28 11:33:53;;;;;;;29.02;12.55;;;17.20;56.60;;;;;;4990166;28;20034;-57
2021/12/28 11:36:21;;;;;;;29.67;12.55;;;17.20;56.60;;;;;;4984487;28;20493;-56
2021/12/28 11:38:47;;;;;;;27.95;12.57;;;17.20;56.50;;;;;;4975943;28;20046;-56
2021/12/28 11:41:13;;;;;;;31.20;11.90;;;17.20;56.50;;;;;;4984763;28;20176;-56
2021/12/28 11:43:39;;;;;;;33.40;13.25;;;17.20;56.60;;;;;;4984621;28;20042;-57
2021/12/28 11:46:05;;;;;;;27.60;12.70;;;17.10;56.60;;;;;;4985198;28;20121;-54
2021/12/28 11:48:31;;;;;;;22.77;11.85;;;17.10;56.50;;;;;;4986972;28;20073;-56
2021/12/28 11:50:57;;;;;;;29.63;13.32;;;17.10;56.50;;;;;;4983747;28;20041;-57
2021/12/28 11:53:23;;;;;;;29.52;13.18;;;17.10;56.60;;;;;;4989658;28;20038;-56
2021/12/28 11:55:49;;;;;;;32.15;13.18;;;17.10;56.60;;;;;;4984033;28;20034;-54
2021/12/28 11:58:14;;;;;;;27.50;12.48;;;17.10;56.50;;;;;;4987189;28;20034;-58
2021/12/28 12:00:40;;;;;;;28.50;12.18;;;17.10;56.50;;;;;;4984599;28;20034;-56
2021/12/28 12:03:06;;;;;;;28.00;11.68;;;17.10;56.50;;;;;;4983693;28;20030;-55
2021/12/28 12:05:32;;;;;;;25.92;11.60;;;17.10;56.60;;;;;;4984958;28;20163;-56
2021/12/28 12:08:06;;;;;;;23.70;10.95;;;17.10;56.70;;;;;;4985016;28;20034;-56
2021/12/28 12:10:32;;;;;;;26.35;12.00;;;17.00;56.80;;;;;;4983823;28;20577;-58
2021/12/28 12:13:03;;;;;;;31.77;12.32;;;17.00;56.90;;;;;;4984402;28;20113;-56
2021/12/28 12:15:40;;;;;;;30.05;13.15;;;17.10;57.00;;;;;;4981863;28;20038;-58
2021/12/28 12:18:09;;;;;;;34.95;13.27;;;17.10;57.00;;;;;;4983856;28;20502;-58
2021/12/28 12:20:36;;;;;;;33.15;13.98;;;17.10;57.00;;;;;;4985503;28;20109;-59
2021/12/28 12:23:08;;;;;;;28.42;12.30;;;17.20;57.10;;;;;;4983963;28;20141;-57
2021/12/28 12:25:50;;;;;;;22.65;10.35;;;17.20;57.10;;;;;;4982409;28;20048;-55
2021/12/28 12:28:29;;;;;;;27.02;12.50;;;17.20;56.90;;;;;;4982372;28;20038;-58
2021/12/28 12:30:54;;;;;;;26.92;12.20;;;17.30;57.40;;;;;;4984080;28;20057;-55
2021/12/28 12:33:20;;;;;;;23.10;12.35;;;17.30;58.20;;;;;;4978847;28;20062;-56
2021/12/28 12:35:51;;;;;;;25.58;12.05;;;17.40;58.40;;;;;;4986331;28;20485;-57
2021/12/28 12:38:17;;;;;;;26.30;12.93;;;17.40;58.80;;;;;;4974938;28;20046;-56